LNG Dream — C6VO5 — position and weather

sailwx.info

Track history (hours):
 
Tides and Currents Weather Stations Pressure Air Temp Water Temp Dewpoint Dewpoint Depression Visibility Wind Speed Wind Dir Waves Ship Positions

LNG Dream

Last reported at 2015-Jan-15 04:26 UTC. Time now 2015-Jan-26 14:28 UTC.
Position N 33°49' E 134°55'.
Warning: this ship's position is 11 days out of date.

Length 289.6 m; beam 49 m.

Type: Ship (hazmat cat A). MMSI: 309065000.

Date/timePositionNaut miles runAvg speedWind from/ knotsBaromVisibWave heightAir tempDewpointWater temp
2015-Jan-15 04:26N 33°49' E 134°55'1313.8
2015-Jan-15 03:31N 34°02' E 134°54'1313.2
2015-Jan-15 02:33N 34°14' E 134°58'1613.2
2015-Jan-15 01:23N 34°27' E 135°08'15 0.3
2015-Jan-13 03:12N 34°33' E 135°25'0 0.5
2015-Jan-13 02:33N 34°33' E 135°25'7 7.2
2015-Jan-13 01:33N 34°32' E 135°16'1313.6
2015-Jan-13 00:33N 34°23' E 135°04'1312.7
2015-Jan-12 23:33N 34°11' E 134°60'8 8.1
2015-Jan-12 22:33N 34°03' E 134°59'6 5.5
2015-Jan-12 21:33N 33°57' E 134°59'  
Track history (hours):
 
Tides and Currents Weather Stations Pressure Air Temp Water Temp Dewpoint Dewpoint Depression Visibility Wind Speed Wind Dir Waves Ship Positions

LNG Dream

Last reported at 2015-Jan-15 04:26 UTC. Time now 2015-Jan-26 14:28 UTC.
Position N 33°49' E 134°55'.
Warning: this ship's position is 11 days out of date.

Length 289.6 m; beam 49 m.

Type: Ship (hazmat cat A). MMSI: 309065000.

Date/timePositionNaut miles runAvg speedWind from/ knotsBaromVisibWave heightAir tempDewpointWater temp
2015-Jan-15 04:26N 33°49' E 134°55'1313.8
2015-Jan-15 03:31N 34°02' E 134°54'1313.2
2015-Jan-15 02:33N 34°14' E 134°58'1613.2
2015-Jan-15 01:23N 34°27' E 135°08'15 0.3
2015-Jan-13 03:12N 34°33' E 135°25'0 0.5
2015-Jan-13 02:33N 34°33' E 135°25'7 7.2
2015-Jan-13 01:33N 34°32' E 135°16'1313.6
2015-Jan-13 00:33N 34°23' E 135°04'1312.7
2015-Jan-12 23:33N 34°11' E 134°60'8 8.1
2015-Jan-12 22:33N 34°03' E 134°59'6 5.5
2015-Jan-12 21:33N 33°57' E 134°59'  

Dump ship's entire track history